Time;durP1;ratioP1;P1;durP2;ratioP2;P2;SDS_P1;SDS_P2;PMS_P1;PMS_P2;Temp;Humidity;BMP_temperature;BMP_pressure;BME280_temperature;BME280_humidity;BME280_pressure;Samples;Min_cycle;Max_cycle;Signal;HPM_P1;HPM_P2
2022/03/30 00:00:23;0.00;0.00;0.62;0.00;0.00;0.62;3.27;2.23;;;26.00;20.80;;;;;;2223465;62;20401;-57
2022/03/30 00:03:09;0.00;0.00;0.62;0.00;0.00;0.62;3.53;2.00;;;25.90;21.20;;;;;;2223035;62;20365;-53
2022/03/30 00:05:53;0.00;0.00;0.62;0.00;0.00;0.62;3.57;2.40;;;25.80;20.70;;;;;;2222649;62;20373;-57
2022/03/30 00:08:38;0.00;0.00;0.62;0.00;0.00;0.62;3.13;1.90;;;25.80;20.90;;;;;;2222785;62;20400;-54
2022/03/30 00:11:22;0.00;0.00;0.62;0.00;0.00;0.62;5.20;2.30;;;25.70;20.60;;;;;;2222887;62;20381;-53
2022/03/30 00:14:07;0.00;0.00;0.62;0.00;0.00;0.62;4.03;2.40;;;25.70;20.60;;;;;;2222847;62;21234;-56
2022/03/30 00:16:52;0.00;0.00;0.62;0.00;0.00;0.62;3.87;2.43;;;25.60;20.60;;;;;;2222529;62;20979;-54
2022/03/30 00:19:38;0.00;0.00;0.62;0.00;0.00;0.62;4.70;2.53;;;25.50;20.60;;;;;;2222708;62;20385;-54
2022/03/30 00:22:23;0.00;0.00;0.62;0.00;0.00;0.62;3.50;2.50;;;25.50;20.60;;;;;;2223123;62;20428;-52
2022/03/30 00:25:11;0.00;0.00;0.62;0.00;0.00;0.62;3.93;2.50;;;25.50;20.70;;;;;;2222883;62;20431;-55
2022/03/30 00:27:56;0.00;0.00;0.62;0.00;0.00;0.62;3.60;2.40;;;25.40;20.60;;;;;;2222391;62;20526;-57
2022/03/30 00:30:41;0.00;0.00;0.62;0.00;0.00;0.62;3.30;2.20;;;25.30;20.50;;;;;;2223100;62;20368;-54
2022/03/30 00:33:26;0.00;0.00;0.62;0.00;0.00;0.62;3.33;2.10;;;25.30;20.50;;;;;;2223016;62;20948;-56
2022/03/30 00:36:13;0.00;0.00;0.62;0.00;0.00;0.62;4.03;2.33;;;25.20;20.50;;;;;;2222607;62;20444;-52
2022/03/30 00:38:57;0.00;0.00;0.62;0.00;0.00;0.62;2.90;2.50;;;25.20;20.50;;;;;;2222668;62;20918;-57
2022/03/30 00:41:42;0.00;0.00;0.62;0.00;0.00;0.62;3.43;2.23;;;25.20;20.50;;;;;;2222913;62;20361;-53
2022/03/30 00:44:27;0.00;0.00;0.62;0.00;0.00;0.62;2.93;2.27;;;25.10;20.50;;;;;;2223132;62;20373;-57
2022/03/30 00:47:14;0.00;0.00;0.62;0.00;0.00;0.62;3.00;2.30;;;25.10;20.50;;;;;;2222485;62;20405;-55
2022/03/30 00:49:58;0.00;0.00;0.62;0.00;0.00;0.62;2.97;2.50;;;25.00;20.50;;;;;;2222280;62;20575;-54
2022/03/30 00:52:46;0.00;0.00;0.62;0.00;0.00;0.62;4.47;2.57;;;25.00;20.60;;;;;;2223116;62;20377;-57
2022/03/30 00:55:31;0.00;0.00;0.62;0.00;0.00;0.62;3.80;2.60;;;24.90;20.50;;;;;;2222944;62;20545;-53
2022/03/30 00:58:16;0.00;0.00;0.62;0.00;0.00;0.62;4.30;2.90;;;24.80;20.50;;;;;;2222357;62;20917;-55
2022/03/30 01:01:01;0.00;0.00;0.62;0.00;0.00;0.62;4.57;3.00;;;24.80;20.50;;;;;;2222720;62;21131;-55
2022/03/30 01:03:46;0.00;0.00;0.62;0.00;0.00;0.62;4.17;2.40;;;24.80;20.50;;;;;;2222616;62;20418;-53
2022/03/30 01:06:31;0.00;0.00;0.62;0.00;0.00;0.62;4.50;2.90;;;24.70;20.40;;;;;;2222874;62;20389;-53
2022/03/30 01:09:17;0.00;0.00;0.62;0.00;0.00;0.62;3.97;2.50;;;24.70;20.50;;;;;;2219520;62;20424;-57
2022/03/30 01:12:02;0.00;0.00;0.62;0.00;0.00;0.62;3.33;2.63;;;24.60;20.40;;;;;;2222217;62;20373;-55
2022/03/30 01:14:47;0.00;0.00;0.62;0.00;0.00;0.62;4.37;2.47;;;24.60;20.40;;;;;;2222841;62;20587;-54
2022/03/30 01:17:32;0.00;0.00;0.62;0.00;0.00;0.62;4.80;3.00;;;24.60;20.40;;;;;;2222500;62;20489;-52
2022/03/30 01:20:21;0.00;0.00;0.62;0.00;0.00;0.62;4.07;2.47;;;24.50;20.40;;;;;;2222454;62;20481;-51
2022/03/30 01:23:07;0.00;0.00;0.62;0.00;0.00;0.62;4.90;3.10;;;24.50;20.40;;;;;;2222628;62;20373;-53
2022/03/30 01:25:52;0.00;0.00;0.62;0.00;0.00;0.62;4.07;2.63;;;24.50;20.40;;;;;;2222621;62;20458;-54
2022/03/30 01:28:36;0.00;0.00;0.62;0.00;0.00;0.62;5.07;2.80;;;24.40;20.40;;;;;;2222463;62;20399;-53
2022/03/30 01:34:24;0.00;0.00;0.62;0.00;0.00;0.62;3.73;3.40;;;24.40;20.40;;;;;;2222457;62;20839;-58
2022/03/30 01:37:11;0.00;0.00;0.62;0.00;0.00;0.62;3.57;2.43;;;24.30;20.30;;;;;;2222598;62;20481;-54
2022/03/30 01:39:58;0.00;0.00;0.62;0.00;0.00;0.62;3.53;2.43;;;24.30;20.30;;;;;;2223838;62;20798;-55
2022/03/30 01:42:43;0.00;0.00;0.62;0.00;0.00;0.62;4.93;2.93;;;24.30;20.40;;;;;;2226333;62;20387;-50
2022/03/30 01:45:27;0.00;0.00;0.62;0.00;0.00;0.62;6.30;2.70;;;24.20;20.30;;;;;;2220762;62;20392;-53
2022/03/30 01:48:12;0.00;0.00;0.62;0.00;0.00;0.62;4.10;2.40;;;24.20;20.40;;;;;;2226515;62;20372;-55
2022/03/30 01:50:57;0.00;0.00;0.62;0.00;0.00;0.62;3.80;2.90;;;24.20;20.40;;;;;;2226679;62;20393;-54
2022/03/30 01:53:42;0.00;0.00;0.62;0.00;0.00;0.62;4.83;2.53;;;24.10;20.80;;;;;;2226321;62;20376;-52
2022/03/30 01:56:28;0.00;0.00;0.62;0.00;0.00;0.62;4.73;2.93;;;24.10;20.30;;;;;;2222748;62;20448;-55
2022/03/30 01:59:14;0.00;0.00;0.62;0.00;0.00;0.62;7.60;2.90;;;24.10;20.40;;;;;;2226477;62;20488;-52
2022/03/30 02:01:58;0.00;0.00;0.62;0.00;0.00;0.62;3.70;2.50;;;24.00;20.30;;;;;;2226678;62;20452;-54
2022/03/30 02:04:43;0.00;0.00;0.62;0.00;0.00;0.62;3.50;2.83;;;24.00;20.40;;;;;;2226442;62;20416;-54
2022/03/30 02:07:29;0.00;0.00;0.62;0.00;0.00;0.62;3.57;2.60;;;24.00;20.40;;;;;;2226490;62;20363;-57
2022/03/30 02:10:14;0.00;0.00;0.62;0.00;0.00;0.62;4.10;2.53;;;23.90;20.30;;;;;;2226335;62;20797;-53
2022/03/30 02:13:00;0.00;0.00;0.62;0.00;0.00;0.62;3.70;2.40;;;23.90;20.40;;;;;;2226184;62;20772;-58
2022/03/30 02:15:45;0.00;0.00;0.62;0.00;0.00;0.62;4.50;2.70;;;23.90;20.40;;;;;;2226305;62;21009;-54
2022/03/30 02:18:29;0.00;0.00;0.62;0.00;0.00;0.62;5.20;3.10;;;23.90;20.40;;;;;;2225839;62;20869;-53
2022/03/30 02:21:17;0.00;0.00;0.62;0.00;0.00;0.62;3.03;2.37;;;23.80;20.40;;;;;;2226363;62;20461;-54
2022/03/30 02:24:02;0.00;0.00;0.62;0.00;0.00;0.62;3.30;2.60;;;23.80;20.40;;;;;;2226606;62;20377;-57
2022/03/30 02:26:47;0.00;0.00;0.62;0.00;0.00;0.62;3.90;2.63;;;23.80;20.40;;;;;;2225833;62;20404;-52
2022/03/30 02:29:34;0.00;0.00;0.62;0.00;0.00;0.62;4.30;2.77;;;23.80;20.40;;;;;;2226502;62;20845;-55
2022/03/30 02:32:19;0.00;0.00;0.62;0.00;0.00;0.62;4.53;2.90;;;23.80;20.40;;;;;;2226330;62;20889;-55
2022/03/30 02:35:05;0.00;0.00;0.62;0.00;0.00;0.62;5.23;2.60;;;23.70;20.40;;;;;;2226434;62;20376;-54
2022/03/30 02:37:54;0.00;0.00;0.62;0.00;0.00;0.62;2.87;2.33;;;23.70;20.40;;;;;;2226444;62;20372;-56
2022/03/30 02:40:39;0.00;0.00;0.62;0.00;0.00;0.62;4.57;2.90;;;23.70;20.40;;;;;;2225634;62;20416;-58
2022/03/30 02:43:23;0.00;0.00;0.62;0.00;0.00;0.62;3.40;2.73;;;23.70;20.90;;;;;;2226955;62;20517;-54
2022/03/30 02:46:09;0.00;0.00;0.62;0.00;0.00;0.62;4.23;2.70;;;23.60;20.30;;;;;;2226694;62;20369;-56
2022/03/30 02:48:54;0.00;0.00;0.62;0.00;0.00;0.62;5.13;2.93;;;23.60;20.40;;;;;;2225924;62;20477;-54
2022/03/30 02:51:39;0.00;0.00;0.62;0.00;0.00;0.62;3.33;2.37;;;23.60;20.40;;;;;;2226829;62;20441;-56
2022/03/30 02:54:25;0.00;0.00;0.62;0.00;0.00;0.62;4.30;2.47;;;23.60;20.40;;;;;;2226364;62;20364;-53
2022/03/30 02:57:09;0.00;0.00;0.62;0.00;0.00;0.62;3.67;2.43;;;23.50;20.30;;;;;;2226482;62;20392;-56
2022/03/30 02:59:54;0.00;0.00;0.62;0.00;0.00;0.62;4.07;2.63;;;23.50;20.30;;;;;;2226963;62;20445;-58
2022/03/30 03:02:40;0.00;0.00;0.62;0.00;0.00;0.62;3.70;2.83;;;23.50;20.40;;;;;;2225973;62;20412;-58
2022/03/30 03:05:27;0.00;0.00;0.62;0.00;0.00;0.62;3.47;2.67;;;23.50;20.40;;;;;;2226623;62;20945;-53
2022/03/30 03:08:13;0.00;0.00;0.62;0.00;0.00;0.62;4.20;2.90;;;23.40;20.30;;;;;;2226046;62;20375;-53
2022/03/30 03:10:58;0.00;0.00;0.62;0.00;0.00;0.62;4.10;2.93;;;23.40;20.30;;;;;;2226039;62;20367;-54
2022/03/30 03:13:42;0.00;0.00;0.62;0.00;0.00;0.62;4.30;2.40;;;23.40;20.30;;;;;;2226406;62;20897;-55
2022/03/30 03:16:28;0.00;0.00;0.62;0.00;0.00;0.62;4.10;2.40;;;23.40;20.30;;;;;;2225901;62;20392;-55
2022/03/30 03:19:14;0.00;0.00;0.62;0.00;0.00;0.62;3.50;2.73;;;23.30;20.30;;;;;;2226291;62;20596;-54
2022/03/30 03:21:59;0.00;0.00;0.62;0.00;0.00;0.62;4.37;3.10;;;23.30;20.30;;;;;;2225928;62;20799;-52
2022/03/30 03:24:44;0.00;0.00;0.62;0.00;0.00;0.62;3.50;2.93;;;23.30;20.30;;;;;;2226309;62;20449;-56
2022/03/30 03:27:29;0.00;0.00;0.62;0.00;0.00;0.62;4.43;3.00;;;23.30;20.30;;;;;;2227156;62;20814;-54
2022/03/30 03:30:14;0.00;0.00;0.62;0.00;0.00;0.62;4.03;2.50;;;23.20;20.20;;;;;;2226782;62;20427;-51
2022/03/30 03:33:01;0.00;0.00;0.62;0.00;0.00;0.62;4.13;2.73;;;23.20;20.30;;;;;;2226689;62;20412;-55
2022/03/30 03:35:47;0.00;0.00;0.62;0.00;0.00;0.62;3.73;2.80;;;23.20;20.30;;;;;;2227079;62;20717;-57
2022/03/30 03:38:32;0.00;0.00;0.62;0.00;0.00;0.62;6.27;2.87;;;23.10;20.30;;;;;;2226871;62;20483;-54
2022/03/30 03:41:16;0.00;0.00;0.62;0.00;0.00;0.62;4.60;3.10;;;23.10;20.30;;;;;;2222534;62;20372;-55
2022/03/30 03:44:01;0.00;0.00;0.62;0.00;0.00;0.62;3.53;2.97;;;23.10;20.30;;;;;;2222947;62;20774;-54
2022/03/30 03:46:45;0.00;0.00;0.62;0.00;0.00;0.62;4.80;2.87;;;23.00;20.30;;;;;;2222774;62;20377;-55
2022/03/30 03:49:30;0.00;0.00;0.62;0.00;0.00;0.62;5.27;3.90;;;23.00;20.30;;;;;;2222766;62;20954;-56
2022/03/30 03:52:16;0.00;0.00;0.62;0.00;0.00;0.62;4.30;3.30;;;23.00;20.30;;;;;;2223217;62;20396;-55
2022/03/30 03:55:01;0.00;0.00;0.62;0.00;0.00;0.62;4.80;3.43;;;23.00;20.30;;;;;;2222463;62;20397;-55
2022/03/30 03:57:45;0.00;0.00;0.62;0.00;0.00;0.62;4.47;3.37;;;23.00;20.30;;;;;;2222873;62;20404;-56
2022/03/30 04:00:30;0.00;0.00;0.62;0.00;0.00;0.62;5.03;3.43;;;23.00;20.30;;;;;;2222853;62;20428;-54
2022/03/30 04:03:14;0.00;0.00;0.62;0.00;0.00;0.62;5.37;3.40;;;22.90;20.30;;;;;;2222815;62;20368;-54
2022/03/30 04:05:59;0.00;0.00;0.62;0.00;0.00;0.62;4.23;3.20;;;22.90;20.30;;;;;;2222883;62;20345;-59
2022/03/30 04:08:45;0.00;0.00;0.62;0.00;0.00;0.62;4.57;3.17;;;22.90;20.30;;;;;;2222909;62;20391;-55
2022/03/30 04:11:29;0.00;0.00;0.62;0.00;0.00;0.62;5.83;3.40;;;22.80;20.30;;;;;;2222895;62;20427;-54
2022/03/30 04:14:17;0.00;0.00;0.62;0.00;0.00;0.62;3.73;2.90;;;22.80;20.30;;;;;;2222933;62;20396;-53
2022/03/30 04:17:03;0.00;0.00;0.62;0.00;0.00;0.62;3.43;2.60;;;22.80;20.30;;;;;;2222335;62;20826;-50
2022/03/30 04:19:47;0.00;0.00;0.62;0.00;0.00;0.62;4.90;3.67;;;22.80;20.40;;;;;;2223025;62;20454;-54
2022/03/30 04:22:32;0.00;0.00;0.62;0.00;0.00;0.62;5.50;3.60;;;22.70;20.30;;;;;;2223107;62;20361;-56
2022/03/30 04:25:18;0.00;0.00;0.62;0.00;0.00;0.62;4.27;3.00;;;22.70;20.40;;;;;;2222672;62;20441;-54
2022/03/30 04:28:03;0.00;0.00;0.62;0.00;0.00;0.62;4.63;2.80;;;22.80;20.40;;;;;;2222706;62;20373;-50
2022/03/30 04:30:48;0.00;0.00;0.62;0.00;0.00;0.62;5.20;3.87;;;22.70;20.40;;;;;;2223058;62;20425;-55
2022/03/30 04:33:32;0.00;0.00;0.62;0.00;0.00;0.62;4.93;3.20;;;22.70;20.40;;;;;;2222672;62;20384;-55
2022/03/30 04:36:17;0.00;0.00;0.62;0.00;0.00;0.62;3.93;2.60;;;22.70;20.50;;;;;;2222605;62;20493;-56
2022/03/30 04:39:02;0.00;0.00;0.62;0.00;0.00;0.62;5.30;3.07;;;22.70;20.50;;;;;;2222029;62;20433;-56
2022/03/30 04:41:48;0.00;0.00;0.62;0.00;0.00;0.62;3.77;2.97;;;22.60;20.50;;;;;;2223135;62;20401;-51
2022/03/30 04:44:33;0.00;0.00;0.62;0.00;0.00;0.62;3.70;2.73;;;22.60;20.50;;;;;;2222405;62;20373;-55
2022/03/30 04:47:17;0.00;0.00;0.62;0.00;0.00;0.62;3.93;2.80;;;22.60;20.50;;;;;;2222061;62;20372;-54
2022/03/30 04:50:03;0.00;0.00;0.62;0.00;0.00;0.62;5.73;3.00;;;22.60;20.60;;;;;;2222867;62;20511;-54
2022/03/30 04:52:48;0.00;0.00;0.62;0.00;0.00;0.62;4.20;3.00;;;22.60;20.60;;;;;;2222801;62;20423;-55
2022/03/30 04:55:33;0.00;0.00;0.62;0.00;0.00;0.62;3.57;2.70;;;22.60;20.60;;;;;;2223419;62;20471;-56
2022/03/30 04:58:19;0.00;0.00;0.62;0.00;0.00;0.62;4.10;3.10;;;22.60;20.60;;;;;;2222796;62;20381;-56
2022/03/30 05:01:03;0.00;0.00;0.62;0.00;0.00;0.62;4.70;3.27;;;22.60;20.60;;;;;;2222272;62;20938;-58
2022/03/30 05:03:48;0.00;0.00;0.62;0.00;0.00;0.62;4.13;3.00;;;22.50;20.50;;;;;;2223244;62;20402;-55
2022/03/30 05:06:34;0.00;0.00;0.62;0.00;0.00;0.62;3.60;2.90;;;22.50;20.50;;;;;;2222880;62;20381;-56
2022/03/30 05:09:18;0.00;0.00;0.62;0.00;0.00;0.62;3.40;3.10;;;22.50;20.50;;;;;;2222488;62;20392;-56
2022/03/30 05:12:04;0.00;0.00;0.62;0.00;0.00;0.62;5.23;3.47;;;22.50;20.50;;;;;;2222817;62;20914;-55
2022/03/30 05:14:51;0.00;0.00;0.62;0.00;0.00;0.62;4.80;3.43;;;22.50;20.50;;;;;;2222672;62;20377;-55
2022/03/30 05:17:38;0.00;0.00;0.62;0.00;0.00;0.62;4.37;3.20;;;22.50;20.50;;;;;;2219164;62;20626;-55
2022/03/30 05:20:24;0.00;0.00;0.62;0.00;0.00;0.62;3.80;2.80;;;22.50;20.50;;;;;;2223390;62;20855;-54
2022/03/30 05:23:08;0.00;0.00;0.62;0.00;0.00;0.62;5.37;2.83;;;22.40;20.40;;;;;;2223509;62;20373;-56
2022/03/30 05:25:53;0.00;0.00;0.62;0.00;0.00;0.62;3.70;2.80;;;22.40;20.40;;;;;;2225137;62;20430;-53
2022/03/30 05:28:38;0.00;0.00;0.62;0.00;0.00;0.62;4.37;2.97;;;22.40;20.40;;;;;;2224350;62;20389;-55
2022/03/30 05:31:24;0.00;0.00;0.62;0.00;0.00;0.62;4.10;3.23;;;22.40;20.40;;;;;;2223950;62;20449;-52
2022/03/30 05:34:08;0.00;0.00;0.62;0.00;0.00;0.62;4.53;2.73;;;22.40;20.40;;;;;;2224211;62;20447;-52
2022/03/30 05:36:53;0.00;0.00;0.62;0.00;0.00;0.62;3.07;2.67;;;22.40;20.40;;;;;;2226472;62;20425;-55
2022/03/30 05:39:41;0.00;0.00;0.62;0.00;0.00;0.62;5.70;2.57;;;22.40;20.40;;;;;;2227780;62;20400;-54
2022/03/30 05:42:26;0.00;0.00;0.62;0.00;0.00;0.62;3.77;3.00;;;22.40;20.40;;;;;;2227624;62;20372;-54
2022/03/30 05:45:11;0.00;0.00;0.62;0.00;0.00;0.62;3.90;3.10;;;22.30;20.40;;;;;;2227501;62;20364;-55
2022/03/30 05:47:57;0.00;0.00;0.62;0.00;0.00;0.62;3.73;2.80;;;22.40;20.50;;;;;;2227897;62;20413;-54
2022/03/30 05:50:41;0.00;0.00;0.62;0.00;0.00;0.62;3.60;2.73;;;22.30;20.40;;;;;;2228049;62;20400;-57
2022/03/30 05:53:26;0.00;0.00;0.62;0.00;0.00;0.62;7.87;3.37;;;22.30;20.50;;;;;;2226753;62;20404;-56
2022/03/30 05:56:11;0.00;0.00;0.62;0.00;0.00;0.62;5.07;2.97;;;22.30;20.50;;;;;;2452783;54;20376;-55
2022/03/30 05:58:55;0.00;0.00;0.62;0.00;0.00;0.62;4.43;3.10;;;22.30;20.60;;;;;;2224231;62;20453;-52
2022/03/30 06:01:40;0.00;0.00;0.62;0.00;0.00;0.62;4.73;3.17;;;22.30;20.60;;;;;;2223690;62;20417;-55
2022/03/30 06:04:26;0.00;0.00;0.62;0.00;0.00;0.62;5.77;3.20;;;22.30;20.60;;;;;;2224880;62;20935;-54
2022/03/30 06:07:11;0.00;0.00;0.62;0.00;0.00;0.62;3.90;3.20;;;22.30;20.70;;;;;;2224931;62;20462;-56
2022/03/30 06:09:56;0.00;0.00;0.62;0.00;0.00;0.62;5.00;2.83;;;22.30;20.60;;;;;;2224806;62;20413;-51
2022/03/30 06:12:41;0.00;0.00;0.62;0.00;0.00;0.62;4.67;3.00;;;22.30;20.70;;;;;;2224175;62;20369;-53
2022/03/30 06:15:26;0.00;0.00;0.62;0.00;0.00;0.62;5.10;2.83;;;22.30;20.70;;;;;;2223482;62;20398;-55
2022/03/30 06:18:13;0.00;0.00;0.62;0.00;0.00;0.62;3.57;3.00;;;22.30;20.70;;;;;;2224003;62;20441;-51
2022/03/30 06:20:59;0.00;0.00;0.62;0.00;0.00;0.62;3.80;3.03;;;22.30;20.70;;;;;;2223894;62;20417;-56
2022/03/30 06:23:44;0.00;0.00;0.62;0.00;0.00;0.62;3.87;3.03;;;22.30;20.70;;;;;;2223601;62;20377;-56
2022/03/30 06:26:29;0.00;0.00;0.62;0.00;0.00;0.62;6.67;3.90;;;22.30;20.80;;;;;;2224251;62;20368;-51
2022/03/30 06:29:14;0.00;0.00;0.62;0.00;0.00;0.62;6.03;3.63;;;22.20;20.70;;;;;;2223473;62;20392;-54
2022/03/30 06:31:59;0.00;0.00;0.62;0.00;0.00;0.62;8.27;4.10;;;22.20;20.70;;;;;;2224031;62;20365;-52
2022/03/30 06:34:43;0.00;0.00;0.62;0.00;0.00;0.62;4.30;3.80;;;22.20;20.70;;;;;;2224058;62;20369;-52
2022/03/30 06:37:29;0.00;0.00;0.62;0.00;0.00;0.62;6.20;3.40;;;22.20;20.70;;;;;;2223018;62;21232;-56
2022/03/30 06:40:15;0.00;0.00;0.62;0.00;0.00;0.62;5.20;3.60;;;22.20;20.70;;;;;;2224179;62;20956;-54
2022/03/30 06:43:00;0.00;0.00;0.62;0.00;0.00;0.62;5.03;3.80;;;22.20;20.70;;;;;;2220712;62;20384;-54
2022/03/30 06:45:46;0.00;0.00;0.62;0.00;0.00;0.62;3.90;3.00;;;22.20;20.80;;;;;;2223429;62;20365;-55
2022/03/30 06:48:30;0.00;0.00;0.62;0.00;0.00;0.62;4.67;3.33;;;22.20;20.80;;;;;;2223866;62;20442;-54
2022/03/30 06:51:16;0.00;0.00;0.62;0.00;0.00;0.62;5.37;3.30;;;22.20;20.90;;;;;;2223689;62;20458;-55
2022/03/30 06:54:02;0.00;0.00;0.62;0.00;0.00;0.62;5.90;3.53;;;22.20;21.00;;;;;;2223856;62;20830;-57
2022/03/30 06:56:47;0.00;0.00;0.62;0.00;0.00;0.62;3.90;3.43;;;22.20;21.00;;;;;;2225622;62;20396;-57
2022/03/30 06:59:31;0.00;0.00;0.62;0.00;0.00;0.62;4.70;3.33;;;22.20;21.00;;;;;;2227010;62;20408;-56
2022/03/30 07:02:16;0.00;0.00;0.62;0.00;0.00;0.62;4.80;3.37;;;22.30;21.10;;;;;;2227952;62;20421;-56
2022/03/30 07:05:01;0.00;0.00;0.62;0.00;0.00;0.62;4.70;3.20;;;22.30;21.20;;;;;;2227815;62;20372;-55
2022/03/30 07:10:51;0.00;0.00;0.62;0.00;0.00;0.62;5.00;3.70;;;22.30;21.20;;;;;;2227880;62;20793;-57
2022/03/30 07:13:35;0.00;0.00;0.62;0.00;0.00;0.62;4.23;3.00;;;22.30;21.20;;;;;;2227789;62;20820;-57
2022/03/30 07:16:20;0.00;0.00;0.62;0.00;0.00;0.62;4.77;3.30;;;22.30;21.20;;;;;;2224605;62;20399;-54
2022/03/30 07:19:04;0.00;0.00;0.62;0.00;0.00;0.62;4.00;2.93;;;22.30;21.20;;;;;;2227745;62;20440;-52
2022/03/30 07:21:49;0.00;0.00;0.62;0.00;0.00;0.62;5.43;2.87;;;22.30;21.20;;;;;;2227140;62;21298;-54
2022/03/30 07:24:34;0.00;0.00;0.62;0.00;0.00;0.62;4.93;2.80;;;22.30;21.30;;;;;;2228090;62;20435;-58
2022/03/30 07:27:20;0.00;0.00;0.62;0.00;0.00;0.62;4.53;3.17;;;22.30;21.30;;;;;;2227575;62;20930;-56
2022/03/30 07:30:06;0.00;0.00;0.62;0.00;0.00;0.62;2.93;2.37;;;22.30;21.30;;;;;;2227235;62;20396;-55
2022/03/30 07:32:53;0.00;0.00;0.62;0.00;0.00;0.62;5.00;2.70;;;22.40;21.40;;;;;;2227829;62;20400;-57
2022/03/30 07:35:45;0.00;0.00;0.62;0.00;0.00;0.62;3.60;2.47;;;22.40;21.30;;;;;;2227055;62;20922;-55
2022/03/30 07:38:30;0.00;0.00;0.62;0.00;0.00;0.62;3.40;2.70;;;22.40;21.30;;;;;;2224290;62;20834;-58
2022/03/30 07:41:14;0.00;0.00;0.62;0.00;0.00;0.62;3.27;2.40;;;22.40;21.40;;;;;;2227749;62;20770;-57
2022/03/30 07:44:00;0.00;0.00;0.62;0.00;0.00;0.62;3.33;2.73;;;22.40;21.40;;;;;;2227072;62;20380;-55
2022/03/30 07:46:48;0.00;0.00;0.62;0.00;0.00;0.62;4.87;3.00;;;22.40;21.40;;;;;;2227719;62;20367;-56
2022/03/30 07:49:33;0.00;0.00;0.62;0.00;0.00;0.62;3.87;2.43;;;22.50;21.40;;;;;;2227550;62;20989;-55
2022/03/30 07:52:17;0.00;0.00;0.62;0.00;0.00;0.62;3.20;2.23;;;22.50;21.40;;;;;;2227442;62;20372;-58
2022/03/30 07:55:03;0.00;0.00;0.62;0.00;0.00;0.62;4.50;2.70;;;22.50;21.40;;;;;;2227790;62;20818;-56
2022/03/30 07:57:48;0.00;0.00;0.62;0.00;0.00;0.62;3.27;2.37;;;22.50;21.40;;;;;;2227109;62;20404;-58
2022/03/30 08:00:34;0.00;0.00;0.62;0.00;0.00;0.62;2.83;2.20;;;22.50;21.40;;;;;;2227669;62;20863;-59
2022/03/30 08:03:19;0.00;0.00;0.62;0.00;0.00;0.62;4.50;2.50;;;22.50;21.40;;;;;;2227568;62;20783;-59
2022/03/30 08:06:04;0.00;0.00;0.62;0.00;0.00;0.62;3.10;2.00;;;22.60;21.40;;;;;;2227240;62;20440;-58
2022/03/30 08:08:48;0.00;0.00;0.62;0.00;0.00;0.62;2.93;2.20;;;22.60;21.40;;;;;;2227783;62;20435;-59
2022/03/30 08:11:33;0.00;0.00;0.62;0.00;0.00;0.62;3.10;2.20;;;22.60;21.40;;;;;;2227577;62;20384;-59
2022/03/30 08:14:17;0.00;0.00;0.62;0.00;0.00;0.62;2.53;2.10;;;22.60;21.40;;;;;;2227963;62;20369;-56
2022/03/30 08:17:04;0.00;0.00;0.62;0.00;0.00;0.62;3.40;2.07;;;22.70;21.50;;;;;;2228120;62;20443;-57
2022/03/30 08:19:48;0.00;0.00;0.62;0.00;0.00;0.62;3.07;2.33;;;22.70;21.50;;;;;;2228061;62;20396;-54
2022/03/30 08:22:34;0.00;0.00;0.62;0.00;0.00;0.62;3.10;2.27;;;22.70;21.50;;;;;;2228046;62;20464;-55
2022/03/30 08:25:18;0.00;0.00;0.62;0.00;0.00;0.62;2.53;1.80;;;22.70;21.50;;;;;;2228577;62;20371;-54
2022/03/30 08:28:04;0.00;0.00;0.62;0.00;0.00;0.62;3.53;1.90;;;22.70;21.50;;;;;;2227633;62;20368;-58
2022/03/30 08:30:49;0.00;0.00;0.62;0.00;0.00;0.62;2.70;2.10;;;22.80;22.10;;;;;;2228379;62;20835;-58
2022/03/30 08:33:35;0.00;0.00;0.62;0.00;0.00;0.62;2.30;1.80;;;22.80;21.50;;;;;;2228325;62;20432;-56
2022/03/30 08:36:20;0.00;0.00;0.62;0.00;0.00;0.62;2.20;1.67;;;22.80;21.50;;;;;;2224323;62;20435;-58
2022/03/30 08:39:10;0.00;0.00;0.62;0.00;0.00;0.62;3.70;1.70;;;22.80;21.50;;;;;;2228313;62;20485;-57
2022/03/30 08:41:56;0.00;0.00;0.62;0.00;0.00;0.62;4.17;2.27;;;22.90;21.50;;;;;;2228101;62;20371;-58
2022/03/30 08:44:41;0.00;0.00;0.62;0.00;0.00;0.62;4.27;2.20;;;22.90;21.50;;;;;;2227881;62;20505;-56
2022/03/30 08:47:25;0.00;0.00;0.62;0.00;0.00;0.62;3.17;1.97;;;22.90;21.50;;;;;;2227955;62;20376;-54
2022/03/30 08:50:11;0.00;0.00;0.62;0.00;0.00;0.62;2.03;1.50;;;22.90;21.50;;;;;;2227958;62;20799;-56
2022/03/30 08:53:00;0.00;0.00;0.62;0.00;0.00;0.62;2.67;1.57;;;22.90;21.50;;;;;;2227562;62;20396;-58
2022/03/30 08:55:45;0.00;0.00;0.62;0.00;0.00;0.62;2.53;1.70;;;23.00;21.50;;;;;;2224378;62;20890;-55
2022/03/30 08:58:30;0.00;0.00;0.62;0.00;0.00;0.62;2.40;1.57;;;23.00;21.50;;;;;;2223453;62;20800;-58
2022/03/30 09:01:15;0.00;0.00;0.62;0.00;0.00;0.62;2.67;1.80;;;23.00;21.50;;;;;;2224461;62;20377;-55
2022/03/30 09:04:02;0.00;0.00;0.62;0.00;0.00;0.62;3.13;1.80;;;23.00;21.50;;;;;;2224157;62;20377;-56
2022/03/30 09:06:50;0.00;0.00;0.62;0.00;0.00;0.62;2.43;1.63;;;23.00;21.50;;;;;;2223536;62;20373;-55
2022/03/30 09:09:38;0.00;0.00;0.62;0.00;0.00;0.62;2.50;1.80;;;23.10;21.50;;;;;;2224000;62;20938;-54
2022/03/30 09:12:26;0.00;0.00;0.62;0.00;0.00;0.62;2.30;1.60;;;23.10;21.50;;;;;;2224013;62;20369;-54
2022/03/30 09:15:12;0.00;0.00;0.62;0.00;0.00;0.62;2.20;1.50;;;23.10;21.50;;;;;;2224432;62;20975;-54
2022/03/30 09:17:59;0.00;0.00;0.62;0.00;0.00;0.62;2.63;1.80;;;23.10;21.50;;;;;;2223665;62;20481;-58
2022/03/30 09:20:47;0.00;0.00;0.62;0.00;0.00;0.62;2.53;1.67;;;23.10;21.50;;;;;;2223720;62;20927;-54
2022/03/30 09:23:33;0.00;0.00;0.62;0.00;0.00;0.62;1.90;1.70;;;23.20;21.60;;;;;;2224256;62;20922;-54
2022/03/30 09:26:17;0.00;0.00;0.62;0.00;0.00;0.62;2.70;1.90;;;23.10;21.50;;;;;;2224075;62;20406;-52
2022/03/30 09:29:03;0.00;0.00;0.62;0.00;0.00;0.62;2.40;1.60;;;23.20;21.50;;;;;;2223933;62;20481;-52
2022/03/30 09:31:49;0.00;0.00;0.62;0.00;0.00;0.62;2.40;1.53;;;23.20;21.50;;;;;;2224111;62;20494;-56
2022/03/30 09:34:34;0.00;0.00;0.62;0.00;0.00;0.62;2.67;1.37;;;23.20;21.50;;;;;;2223946;62;20422;-57
2022/03/30 09:37:20;0.00;0.00;0.62;0.00;0.00;0.62;2.73;1.80;;;23.20;21.50;;;;;;2221198;62;20396;-54
2022/03/30 09:40:12;0.00;0.00;0.62;0.00;0.00;0.62;2.73;1.77;;;23.30;21.60;;;;;;2224061;62;20468;-56
2022/03/30 09:43:10;0.00;0.00;0.62;0.00;0.00;0.62;2.20;1.50;;;23.30;21.50;;;;;;2223702;62;20796;-54
2022/03/30 09:46:09;0.00;0.00;0.62;0.00;0.00;0.62;2.23;1.57;;;23.30;21.50;;;;;;2224172;62;20894;-55
2022/03/30 09:48:54;0.00;0.00;0.62;0.00;0.00;0.62;2.67;1.83;;;23.30;21.50;;;;;;2223242;62;20393;-55
2022/03/30 09:51:39;0.00;0.00;0.62;0.00;0.00;0.62;2.63;2.03;;;23.40;21.60;;;;;;2224043;62;20448;-55
2022/03/30 09:54:37;0.00;0.00;0.62;0.00;0.00;0.62;1.93;1.50;;;23.40;21.60;;;;;;2220681;62;20373;-53
2022/03/30 09:57:25;0.00;0.00;0.62;0.00;0.00;0.62;3.63;1.83;;;23.40;21.60;;;;;;2223409;62;20397;-57
2022/03/30 10:00:12;0.00;0.00;0.62;0.00;0.00;0.62;2.57;1.50;;;23.40;21.60;;;;;;2224350;62;20397;-56
2022/03/30 10:02:57;0.00;0.00;0.62;0.00;0.00;0.62;4.00;1.80;;;23.50;21.70;;;;;;2224034;62;20376;-54
2022/03/30 10:05:41;0.00;0.00;0.62;0.00;0.00;0.62;2.73;1.60;;;23.50;21.60;;;;;;2223778;62;20462;-56
2022/03/30 10:08:26;0.00;0.00;0.62;0.00;0.00;0.62;3.73;1.60;;;23.50;21.60;;;;;;2223927;62;20393;-56
2022/03/30 10:11:15;0.00;0.00;0.62;0.00;0.00;0.62;2.63;1.50;;;23.50;21.60;;;;;;2223997;62;20380;-55
2022/03/30 10:14:05;0.00;0.00;0.62;0.00;0.00;0.62;1.93;1.20;;;23.50;21.60;;;;;;2224048;62;20393;-53
2022/03/30 10:16:49;0.00;0.00;0.62;0.00;0.00;0.62;2.67;1.50;;;23.50;21.60;;;;;;2224357;62;20449;-52
2022/03/30 10:19:34;0.00;0.00;0.62;0.00;0.00;0.62;2.70;1.43;;;23.60;21.70;;;;;;2223480;62;20993;-58
2022/03/30 10:22:43;0.00;0.00;0.62;0.00;0.00;0.62;2.13;1.60;;;23.60;21.70;;;;;;2224029;62;20369;-53
2022/03/30 10:25:48;0.00;0.00;0.62;0.00;0.00;0.62;2.10;1.67;;;23.60;21.70;;;;;;2224136;62;20531;-55
2022/03/30 10:28:52;0.00;0.00;0.62;0.00;0.00;0.62;2.80;1.80;;;23.60;21.70;;;;;;2223540;62;20955;-56
2022/03/30 10:31:38;0.00;0.00;0.62;0.00;0.00;0.62;2.13;1.50;;;23.70;21.70;;;;;;2224176;62;20783;-55
2022/03/30 10:34:25;0.00;0.00;0.62;0.00;0.00;0.62;2.33;1.37;;;23.70;21.70;;;;;;2223179;62;20425;-54
2022/03/30 10:37:10;0.00;0.00;0.62;0.00;0.00;0.62;1.83;1.40;;;23.70;21.70;;;;;;2224079;62;20412;-58
2022/03/30 10:40:05;0.00;0.00;0.62;0.00;0.00;0.62;1.70;1.20;;;23.70;21.70;;;;;;2223892;62;20449;-56
2022/03/30 10:43:05;0.00;0.00;0.62;0.00;0.00;0.62;1.80;1.33;;;23.70;21.70;;;;;;2223724;62;20381;-53
2022/03/30 10:45:58;0.00;0.00;0.62;0.00;0.00;0.62;2.70;1.50;;;23.80;21.80;;;;;;2223723;62;20418;-52
2022/03/30 10:48:44;0.00;0.00;0.62;0.00;0.00;0.62;2.60;1.70;;;23.80;21.70;;;;;;2223059;62;20424;-58
2022/03/30 10:51:29;0.00;0.00;0.62;0.00;0.00;0.62;1.77;1.13;;;23.80;21.70;;;;;;2224179;62;20373;-57
2022/03/30 10:54:29;0.00;0.00;0.62;0.00;0.00;0.62;2.20;1.30;;;23.80;21.80;;;;;;2223892;62;20404;-56
2022/03/30 10:57:43;0.00;0.00;0.62;0.00;0.00;0.62;2.83;1.30;;;23.90;21.80;;;;;;2224722;62;20421;-57
2022/03/30 11:00:34;0.00;0.00;0.62;0.00;0.00;0.62;2.20;1.20;;;23.90;21.80;;;;;;2227531;62;20395;-55